createdAt,value
2023-01-19T00:00:28.629Z,47.77
2023-01-19T00:02:00.172Z,47.87
2023-01-19T00:03:31.701Z,47.93
2023-01-19T00:05:04.209Z,47.78
2023-01-19T00:06:35.854Z,47.70
2023-01-19T00:08:14.944Z,47.81
2023-01-19T00:09:46.655Z,47.50
2023-01-19T00:11:19.781Z,47.50
2023-01-19T00:12:51.947Z,47.45
2023-01-19T00:14:23.837Z,47.47
2023-01-19T00:15:55.453Z,47.50
2023-01-19T00:17:27.109Z,47.35
2023-01-19T00:18:58.855Z,47.43
2023-01-19T00:20:32.916Z,47.15
2023-01-19T00:22:06.103Z,47.05
2023-01-19T00:23:38.258Z,47.10
2023-01-19T00:25:10.182Z,47.10
2023-01-19T00:26:42.960Z,47.03
2023-01-19T00:28:15.436Z,47.16
2023-01-19T00:29:47.176Z,47.15
2023-01-19T00:31:20.799Z,46.92
2023-01-19T00:32:52.801Z,46.88
2023-01-19T00:34:24.698Z,46.82
2023-01-19T00:35:56.775Z,46.83
2023-01-19T00:37:28.334Z,46.69
2023-01-19T00:38:59.991Z,46.83
2023-01-19T00:40:31.578Z,46.74
2023-01-19T00:42:21.681Z,46.80
2023-01-19T00:43:53.834Z,46.81
2023-01-19T00:45:26.011Z,46.57
2023-01-19T00:46:57.641Z,46.87
2023-01-19T00:48:29.789Z,46.59
2023-01-19T00:50:01.637Z,46.45
2023-01-19T00:51:33.193Z,46.54
2023-01-19T00:53:04.632Z,46.58
2023-01-19T00:54:36.162Z,46.42
2023-01-19T00:56:08.321Z,46.50
2023-01-19T00:57:40.158Z,46.40
2023-01-19T00:59:12.339Z,46.49
2023-01-19T01:00:44.925Z,46.39
2023-01-19T01:02:16.706Z,46.47
2023-01-19T01:03:48.485Z,46.60
2023-01-19T01:05:20.293Z,46.56
2023-01-19T01:06:51.845Z,46.51
2023-01-19T01:08:23.769Z,46.58
2023-01-19T01:09:56.760Z,46.58
2023-01-19T01:11:28.532Z,46.51
2023-01-19T01:13:00.368Z,46.53
2023-01-19T01:14:51.883Z,46.58
2023-01-19T01:16:23.523Z,46.42
2023-01-19T01:17:55.458Z,46.58
2023-01-19T01:19:27.321Z,46.61
2023-01-19T01:21:02.480Z,46.49
2023-01-19T01:22:34.236Z,46.68
2023-01-19T01:24:06.094Z,46.67
2023-01-19T01:25:38.721Z,46.44
2023-01-19T01:27:10.323Z,46.79
2023-01-19T01:28:41.851Z,46.48
2023-01-19T01:30:13.751Z,46.76
2023-01-19T01:31:45.274Z,46.58
2023-01-19T01:33:40.520Z,46.48
2023-01-19T01:35:09.292Z,46.40
2023-01-19T01:36:40.830Z,46.42
2023-01-19T01:38:12.345Z,46.21
2023-01-19T01:39:43.909Z,46.33
2023-01-19T01:41:15.701Z,46.45
2023-01-19T01:42:47.700Z,46.28
2023-01-19T01:44:38.088Z,46.38
2023-01-19T01:46:09.605Z,46.28
2023-01-19T01:47:42.426Z,46.28
2023-01-19T01:49:15.072Z,46.27
2023-01-19T01:51:09.676Z,46.48
2023-01-19T01:52:43.698Z,46.48
2023-01-19T01:54:35.163Z,46.53
2023-01-19T01:56:07.636Z,46.36
2023-01-19T01:57:40.667Z,46.27
2023-01-19T01:59:25.776Z,46.26
2023-01-19T02:01:16.236Z,46.10
2023-01-19T02:02:56.918Z,46.16
2023-01-19T02:04:29.113Z,46.28
2023-01-19T02:06:01.312Z,46.09
2023-01-19T02:08:11.743Z,46.21
2023-01-19T02:10:01.683Z,46.04
2023-01-19T02:11:52.399Z,46.17
2023-01-19T02:13:24.054Z,45.93
2023-01-19T02:14:55.633Z,46.02
2023-01-19T02:16:27.440Z,46.02
2023-01-19T02:17:59.371Z,45.99
2023-01-19T02:19:33.096Z,46.04
2023-01-19T02:21:04.799Z,45.97
2023-01-19T02:22:39.743Z,45.84
2023-01-19T02:24:11.223Z,45.95
2023-01-19T02:25:42.760Z,45.89
2023-01-19T02:27:15.898Z,45.39
2023-01-19T02:28:49.423Z,45.73
2023-01-19T02:30:21.095Z,45.75
2023-01-19T02:31:54.075Z,45.84
2023-01-19T02:33:26.179Z,45.84
2023-01-19T02:34:58.156Z,45.87
2023-01-19T02:36:48.414Z,45.84
2023-01-19T02:38:19.909Z,45.81
2023-01-19T02:39:58.245Z,45.76
2023-01-19T02:41:31.618Z,45.65
2023-01-19T02:43:03.458Z,45.28
2023-01-19T02:44:35.561Z,45.56
2023-01-19T02:46:07.354Z,45.70
2023-01-19T02:47:40.047Z,45.53
2023-01-19T02:49:11.934Z,45.28
2023-01-19T02:50:47.081Z,45.43
2023-01-19T02:52:18.603Z,45.02
2023-01-19T02:54:12.446Z,45.39
2023-01-19T02:55:44.529Z,45.15
2023-01-19T02:57:18.996Z,45.15
2023-01-19T02:58:53.509Z,44.85
2023-01-19T03:00:32.778Z,44.86
2023-01-19T03:02:04.800Z,44.82
2023-01-19T03:03:39.688Z,44.83
2023-01-19T03:05:16.655Z,44.92
2023-01-19T03:06:49.718Z,44.86
2023-01-19T03:08:38.190Z,44.90
2023-01-19T03:10:13.066Z,44.77
2023-01-19T03:11:46.683Z,44.86
2023-01-19T03:13:37.565Z,44.61
2023-01-19T03:15:22.403Z,44.67
2023-01-19T03:16:55.701Z,44.64
2023-01-19T03:18:27.331Z,44.63
2023-01-19T03:19:59.211Z,44.47
2023-01-19T03:21:31.114Z,44.43
2023-01-19T03:23:03.811Z,44.48
2023-01-19T03:24:37.843Z,44.21
2023-01-19T03:26:09.895Z,44.39
2023-01-19T03:27:42.289Z,44.44
2023-01-19T03:29:13.949Z,44.22
2023-01-19T03:30:46.926Z,44.35
2023-01-19T03:32:19.171Z,44.51
2023-01-19T03:33:51.691Z,44.37
2023-01-19T03:35:23.881Z,44.36
2023-01-19T03:36:57.853Z,44.31
2023-01-19T03:38:29.446Z,44.54
2023-01-19T03:40:01.407Z,44.38
2023-01-19T03:41:33.121Z,44.34
2023-01-19T03:43:05.111Z,44.35
2023-01-19T03:44:37.597Z,44.21
2023-01-19T03:46:09.194Z,44.17
2023-01-19T03:47:40.723Z,44.23
2023-01-19T03:49:12.306Z,44.04
2023-01-19T03:50:43.775Z,44.03
2023-01-19T03:52:15.451Z,43.82
2023-01-19T03:53:46.951Z,44.24
2023-01-19T03:55:18.481Z,44.24
2023-01-19T03:56:50.123Z,44.14
2023-01-19T03:58:22.584Z,44.06
2023-01-19T03:59:54.172Z,44.03
2023-01-19T04:01:26.196Z,43.81
2023-01-19T04:02:58.138Z,43.97
2023-01-19T04:04:29.907Z,44.05
2023-01-19T04:06:01.784Z,44.14
2023-01-19T04:07:33.474Z,44.08
2023-01-19T04:09:05.638Z,44.11
2023-01-19T04:10:37.783Z,44.25
2023-01-19T04:12:09.568Z,44.28
2023-01-19T04:13:41.146Z,44.11
2023-01-19T04:15:12.655Z,44.17
2023-01-19T04:16:44.211Z,44.16
2023-01-19T04:18:15.793Z,44.15
2023-01-19T04:19:47.426Z,44.27
2023-01-19T04:21:20.375Z,44.15
2023-01-19T04:22:51.984Z,44.04
2023-01-19T04:24:23.602Z,43.58
2023-01-19T04:25:58.874Z,44.06
2023-01-19T04:27:30.337Z,43.85
2023-01-19T04:29:01.846Z,43.80
2023-01-19T04:30:33.332Z,43.73
2023-01-19T04:32:05.041Z,43.62
2023-01-19T04:33:36.560Z,43.53
2023-01-19T04:35:08.211Z,43.35
2023-01-19T04:36:39.688Z,43.76
2023-01-19T04:38:11.189Z,43.71
2023-01-19T04:39:42.747Z,43.55
2023-01-19T04:41:14.472Z,43.60
2023-01-19T04:42:46.048Z,43.46
2023-01-19T04:44:18.187Z,43.48
2023-01-19T04:45:50.132Z,43.47
2023-01-19T04:47:22.095Z,43.67
2023-01-19T04:48:53.903Z,43.73
2023-01-19T04:50:25.880Z,43.61
2023-01-19T04:51:57.449Z,43.60
2023-01-19T04:53:29.109Z,43.47
2023-01-19T04:55:01.791Z,43.47
2023-01-19T04:56:33.331Z,43.39
2023-01-19T04:58:04.959Z,43.47
2023-01-19T04:59:36.536Z,43.47
2023-01-19T05:01:09.251Z,43.44
2023-01-19T05:02:44.195Z,43.33
2023-01-19T05:04:15.794Z,43.27
2023-01-19T05:05:47.655Z,43.49
2023-01-19T05:07:19.412Z,43.34
2023-01-19T05:08:52.188Z,43.31
2023-01-19T05:10:24.317Z,43.19
2023-01-19T05:11:55.934Z,43.08
2023-01-19T05:13:27.506Z,43.11
2023-01-19T05:14:58.972Z,43.34
2023-01-19T05:16:30.554Z,43.29
2023-01-19T05:18:02.062Z,43.40
2023-01-19T05:19:33.691Z,43.28
2023-01-19T05:21:05.345Z,43.31
2023-01-19T05:22:37.002Z,43.49
2023-01-19T05:24:08.879Z,43.36
2023-01-19T05:25:40.405Z,43.42
2023-01-19T05:27:11.993Z,43.33
2023-01-19T05:28:43.558Z,43.55
2023-01-19T05:30:15.147Z,43.60
2023-01-19T05:31:46.786Z,43.57
2023-01-19T05:33:18.382Z,43.60
2023-01-19T05:34:49.961Z,43.55
2023-01-19T05:36:21.629Z,43.63
2023-01-19T05:37:53.234Z,43.62
2023-01-19T05:39:26.363Z,43.78
2023-01-19T05:40:58.735Z,43.56
2023-01-19T05:42:32.694Z,43.82
2023-01-19T05:44:05.062Z,44.09
2023-01-19T05:45:41.373Z,44.17
2023-01-19T05:47:13.063Z,44.13
2023-01-19T05:48:45.350Z,44.27
2023-01-19T05:50:17.109Z,44.18
2023-01-19T05:51:48.731Z,44.28
2023-01-19T05:53:20.856Z,44.63
2023-01-19T05:54:52.620Z,44.73
2023-01-19T05:56:24.157Z,44.49
2023-01-19T05:57:55.680Z,44.82
2023-01-19T05:59:27.421Z,44.61
2023-01-19T06:01:02.408Z,44.45
2023-01-19T06:02:34.545Z,44.87
2023-01-19T06:04:06.380Z,44.47
2023-01-19T06:05:39.664Z,45.00
2023-01-19T06:07:11.347Z,44.94
2023-01-19T06:08:43.008Z,44.84
2023-01-19T06:10:14.825Z,44.96
2023-01-19T06:11:46.459Z,45.01
2023-01-19T06:13:18.177Z,45.08
2023-01-19T06:14:49.853Z,45.29
2023-01-19T06:16:21.502Z,45.02
2023-01-19T06:17:53.142Z,45.04
2023-01-19T06:19:24.837Z,45.25
2023-01-19T06:20:58.876Z,45.35
2023-01-19T06:22:30.437Z,45.10
2023-01-19T06:24:03.543Z,45.19
2023-01-19T06:25:35.871Z,45.47
2023-01-19T06:27:07.686Z,45.49
2023-01-19T06:28:39.392Z,45.56
2023-01-19T06:30:11.331Z,45.41
2023-01-19T06:31:43.130Z,45.55
2023-01-19T06:33:14.784Z,45.28
2023-01-19T06:34:46.946Z,45.60
2023-01-19T06:36:18.656Z,45.43
2023-01-19T06:37:50.553Z,45.66
2023-01-19T06:39:22.151Z,45.43
2023-01-19T06:40:54.784Z,45.49
2023-01-19T06:42:26.532Z,45.37
2023-01-19T06:43:58.183Z,45.46
2023-01-19T06:45:29.949Z,45.23
2023-01-19T06:47:14.556Z,45.37
2023-01-19T06:48:48.187Z,45.22
2023-01-19T06:50:19.821Z,45.34
2023-01-19T06:51:51.480Z,45.14
2023-01-19T06:53:23.073Z,45.04
2023-01-19T06:54:54.698Z,44.97
2023-01-19T06:56:28.467Z,44.98
2023-01-19T06:58:00.954Z,44.76
2023-01-19T06:59:32.638Z,44.80
2023-01-19T07:01:06.254Z,44.74
2023-01-19T07:02:38.841Z,44.71
2023-01-19T07:04:14.142Z,44.65
2023-01-19T07:05:45.727Z,44.58
2023-01-19T07:07:17.375Z,44.49
2023-01-19T07:08:48.931Z,44.66
2023-01-19T07:10:20.560Z,44.39
2023-01-19T07:11:53.658Z,44.60
2023-01-19T07:13:25.359Z,44.46
2023-01-19T07:14:56.973Z,44.52
2023-01-19T07:16:28.584Z,44.53
2023-01-19T07:18:00.373Z,44.51
2023-01-19T07:19:32.255Z,44.27
2023-01-19T07:21:04.755Z,44.28
2023-01-19T07:22:36.731Z,44.14
2023-01-19T07:24:08.954Z,44.13
2023-01-19T07:25:40.829Z,44.08
2023-01-19T07:27:12.854Z,43.92
2023-01-19T07:28:45.461Z,43.79
2023-01-19T07:30:17.649Z,43.46
2023-01-19T07:31:50.308Z,43.64
2023-01-19T07:33:23.731Z,43.29
2023-01-19T07:34:55.290Z,43.14
2023-01-19T07:36:26.992Z,43.07
2023-01-19T07:37:59.244Z,43.01
2023-01-19T07:39:32.265Z,43.03
2023-01-19T07:41:04.447Z,42.76
2023-01-19T07:42:36.689Z,42.56
2023-01-19T07:44:09.244Z,42.82
2023-01-19T07:45:41.415Z,42.86
2023-01-19T07:47:13.032Z,42.44
2023-01-19T07:48:45.374Z,42.29
2023-01-19T07:50:18.160Z,42.42
2023-01-19T07:51:49.951Z,42.11
2023-01-19T07:53:22.613Z,42.03
2023-01-19T07:54:54.211Z,42.11
2023-01-19T07:56:27.899Z,42.13
2023-01-19T07:57:59.550Z,41.76
2023-01-19T07:59:32.528Z,42.28
2023-01-19T08:01:08.930Z,42.06
2023-01-19T08:02:41.504Z,41.79
2023-01-19T08:04:13.203Z,41.52
2023-01-19T08:05:45.398Z,42.00
2023-01-19T08:07:17.143Z,41.78
2023-01-19T08:08:48.957Z,41.67
2023-01-19T08:10:23.162Z,41.68
2023-01-19T08:11:54.841Z,41.24
2023-01-19T08:13:26.825Z,41.17
2023-01-19T08:14:58.510Z,41.16
2023-01-19T08:16:30.202Z,40.98
2023-01-19T08:18:02.343Z,40.79
2023-01-19T08:19:33.981Z,40.83
2023-01-19T08:21:06.219Z,40.68
2023-01-19T08:22:38.459Z,40.99
2023-01-19T08:24:11.237Z,40.80
2023-01-19T08:25:44.458Z,40.62
2023-01-19T08:27:16.180Z,40.71
2023-01-19T08:28:47.931Z,40.47
2023-01-19T08:30:19.486Z,40.70
2023-01-19T08:31:51.317Z,40.39
2023-01-19T08:33:23.293Z,40.22
2023-01-19T08:34:54.959Z,39.99
2023-01-19T08:36:26.602Z,40.12
2023-01-19T08:38:01.427Z,39.94
2023-01-19T08:39:33.360Z,40.04
2023-01-19T08:41:05.802Z,40.09
2023-01-19T08:42:37.918Z,39.76
2023-01-19T08:44:10.006Z,39.73
2023-01-19T08:45:45.747Z,39.56
2023-01-19T08:47:18.223Z,39.48
2023-01-19T08:48:50.432Z,39.32
2023-01-19T08:50:22.938Z,39.58
2023-01-19T08:51:54.550Z,39.73
2023-01-19T08:53:26.278Z,39.42
2023-01-19T08:54:57.932Z,39.33
2023-01-19T08:56:29.433Z,39.25
2023-01-19T08:58:02.447Z,39.25
2023-01-19T08:59:34.388Z,38.99
2023-01-19T09:01:07.108Z,39.16
2023-01-19T09:02:39.227Z,39.11
2023-01-19T09:04:11.374Z,39.34
2023-01-19T09:05:43.046Z,39.08
2023-01-19T09:07:14.857Z,39.18
2023-01-19T09:08:46.818Z,39.04
2023-01-19T09:10:18.702Z,39.25
2023-01-19T09:11:50.486Z,38.98
2023-01-19T09:13:22.293Z,38.81
2023-01-19T09:14:53.958Z,38.97
2023-01-19T09:16:27.487Z,38.96
2023-01-19T09:17:59.346Z,39.14
2023-01-19T09:19:31.168Z,39.26
2023-01-19T09:21:04.223Z,39.26
2023-01-19T09:22:36.009Z,39.43
2023-01-19T09:24:09.297Z,39.21
2023-01-19T09:25:41.631Z,39.18
2023-01-19T09:27:13.490Z,39.46
2023-01-19T09:28:45.124Z,39.60
2023-01-19T09:30:17.390Z,39.37
2023-01-19T09:31:49.197Z,39.73
2023-01-19T09:33:20.934Z,39.05
2023-01-19T09:34:54.015Z,39.23
2023-01-19T09:36:25.602Z,39.19
2023-01-19T09:37:57.238Z,39.20
2023-01-19T09:39:28.796Z,39.35
2023-01-19T09:41:00.633Z,39.47
2023-01-19T09:42:38.552Z,39.29
2023-01-19T09:44:13.428Z,39.53
2023-01-19T09:45:49.095Z,39.56
2023-01-19T09:47:22.914Z,39.38
2023-01-19T09:48:56.841Z,39.50
2023-01-19T09:50:29.430Z,39.63
2023-01-19T09:52:01.024Z,39.45
2023-01-19T09:53:47.790Z,39.78
2023-01-19T09:55:20.517Z,39.74
2023-01-19T09:56:53.428Z,39.52
2023-01-19T09:58:24.970Z,39.56
2023-01-19T09:59:59.878Z,39.63
2023-01-19T10:01:35.236Z,39.66
2023-01-19T10:03:12.606Z,39.39
2023-01-19T10:05:03.370Z,39.21
2023-01-19T10:06:35.179Z,39.33
2023-01-19T10:08:09.012Z,39.25
2023-01-19T10:09:40.880Z,39.45
2023-01-19T10:11:51.599Z,39.40
2023-01-19T10:13:33.674Z,39.60
2023-01-19T10:15:23.803Z,39.40
2023-01-19T10:17:07.179Z,39.37
2023-01-19T10:18:46.015Z,39.29
2023-01-19T10:20:19.928Z,39.35
2023-01-19T10:21:51.898Z,39.26
2023-01-19T10:23:32.402Z,39.12
2023-01-19T10:25:06.124Z,38.97
2023-01-19T10:26:39.223Z,38.98
2023-01-19T10:28:11.049Z,39.00
2023-01-19T10:29:43.486Z,39.09
2023-01-19T10:31:15.649Z,39.25
2023-01-19T10:32:47.669Z,39.03
2023-01-19T10:34:23.677Z,39.29
2023-01-19T10:35:55.913Z,39.10
2023-01-19T10:37:40.922Z,38.91
2023-01-19T10:39:13.968Z,39.11
2023-01-19T10:41:14.909Z,39.08
2023-01-19T10:42:46.930Z,39.14
2023-01-19T10:44:28.488Z,39.05
2023-01-19T10:46:00.344Z,39.60
2023-01-19T10:47:34.198Z,39.30
2023-01-19T10:49:06.309Z,39.45
2023-01-19T10:50:40.077Z,39.63
2023-01-19T10:52:39.989Z,39.51
2023-01-19T10:54:12.020Z,39.34
2023-01-19T10:55:44.075Z,39.16
2023-01-19T10:57:21.386Z,39.17
2023-01-19T10:58:53.955Z,39.15
2023-01-19T11:00:35.034Z,39.48
2023-01-19T11:02:17.397Z,39.44
2023-01-19T11:03:49.812Z,39.47
2023-01-19T11:05:22.876Z,39.16
2023-01-19T11:06:58.215Z,39.31
2023-01-19T11:08:30.606Z,39.29
2023-01-19T11:10:12.785Z,39.14
2023-01-19T11:11:45.055Z,39.12
2023-01-19T11:13:16.737Z,39.04
2023-01-19T11:14:48.773Z,39.08
2023-01-19T11:16:25.936Z,39.12
2023-01-19T11:17:57.583Z,38.97
2023-01-19T11:19:32.251Z,38.69
2023-01-19T11:21:06.651Z,38.89
2023-01-19T11:22:38.500Z,38.81
2023-01-19T11:24:10.371Z,38.55
2023-01-19T11:25:42.152Z,38.48
2023-01-19T11:27:16.641Z,38.59
2023-01-19T11:28:48.593Z,38.33
2023-01-19T11:30:21.240Z,38.44
2023-01-19T11:31:53.452Z,38.47
2023-01-19T11:33:25.812Z,38.44
2023-01-19T11:34:57.940Z,38.23
2023-01-19T11:36:30.523Z,38.48
2023-01-19T11:38:13.946Z,38.23
2023-01-19T11:40:05.922Z,38.41
2023-01-19T11:41:37.932Z,38.39
2023-01-19T11:43:15.438Z,38.14
2023-01-19T11:44:48.555Z,37.92
2023-01-19T11:46:20.251Z,38.19
2023-01-19T11:47:57.184Z,38.47
2023-01-19T11:49:38.690Z,38.50
2023-01-19T11:51:13.745Z,38.34
2023-01-19T11:52:50.445Z,38.45
2023-01-19T11:54:24.343Z,38.25
2023-01-19T11:55:59.604Z,38.11
2023-01-19T11:57:31.244Z,38.13
2023-01-19T11:59:02.901Z,37.93
2023-01-19T12:00:39.127Z,37.78
2023-01-19T12:02:26.904Z,37.81
2023-01-19T12:04:07.773Z,37.69
2023-01-19T12:05:40.874Z,37.90
2023-01-19T12:07:12.960Z,37.69
2023-01-19T12:08:48.806Z,37.59
2023-01-19T12:10:23.471Z,37.76
2023-01-19T12:12:05.211Z,37.59
2023-01-19T12:13:37.822Z,37.61
2023-01-19T12:15:29.799Z,37.38
2023-01-19T12:17:02.811Z,37.52
2023-01-19T12:18:39.488Z,37.42
2023-01-19T12:20:15.138Z,37.53
2023-01-19T12:21:49.870Z,37.53
2023-01-19T12:23:21.825Z,37.23
2023-01-19T12:24:55.444Z,37.29
2023-01-19T12:26:32.818Z,37.38
2023-01-19T12:28:04.852Z,37.14
2023-01-19T12:29:36.468Z,37.52
2023-01-19T12:31:08.965Z,37.25
2023-01-19T12:32:43.199Z,37.35
2023-01-19T12:34:25.382Z,37.16
2023-01-19T12:35:58.337Z,37.16
2023-01-19T12:37:42.151Z,37.18
2023-01-19T12:39:13.917Z,37.03
2023-01-19T12:40:45.671Z,37.01
2023-01-19T12:42:18.894Z,37.20
2023-01-19T12:44:19.484Z,36.97
2023-01-19T12:45:51.399Z,37.12
2023-01-19T12:47:24.590Z,37.05
2023-01-19T12:48:56.607Z,37.01
2023-01-19T12:50:30.043Z,36.99
2023-01-19T12:52:17.585Z,36.99
2023-01-19T12:53:53.602Z,37.12
2023-01-19T12:55:31.809Z,36.88
2023-01-19T12:57:06.156Z,37.12
2023-01-19T12:58:37.867Z,37.04
2023-01-19T13:00:24.261Z,36.90
2023-01-19T13:02:19.220Z,36.88
2023-01-19T13:04:03.648Z,37.06
2023-01-19T13:05:41.851Z,36.87
2023-01-19T13:07:18.118Z,36.74
2023-01-19T13:08:52.909Z,36.85
2023-01-19T13:10:43.922Z,36.95
2023-01-19T13:12:15.575Z,37.00
2023-01-19T13:13:50.121Z,36.93
2023-01-19T13:15:43.271Z,36.71
2023-01-19T13:17:53.345Z,36.99
2023-01-19T13:19:29.478Z,37.05
2023-01-19T13:21:04.966Z,36.96
2023-01-19T13:22:52.670Z,37.22
2023-01-19T13:24:24.277Z,36.85
2023-01-19T13:25:58.771Z,36.86
2023-01-19T13:27:30.471Z,36.76
2023-01-19T13:29:11.094Z,36.55
2023-01-19T13:30:56.632Z,36.81
2023-01-19T13:32:28.243Z,37.01
2023-01-19T13:34:00.230Z,36.80
2023-01-19T13:35:31.856Z,36.75
2023-01-19T13:37:04.605Z,36.81
2023-01-19T13:38:36.466Z,36.77
2023-01-19T13:40:10.760Z,36.86
2023-01-19T13:41:42.998Z,36.94
2023-01-19T13:43:19.261Z,36.93
2023-01-19T13:44:52.701Z,36.88
2023-01-19T13:46:26.480Z,36.46
2023-01-19T13:47:58.586Z,36.76
2023-01-19T13:49:36.767Z,36.86
2023-01-19T13:51:10.703Z,36.79
2023-01-19T13:52:44.850Z,36.89
2023-01-19T13:54:17.512Z,36.80
2023-01-19T13:55:49.251Z,36.84
2023-01-19T13:57:24.637Z,36.72
2023-01-19T13:59:10.563Z,36.70
2023-01-19T14:00:45.135Z,36.64
2023-01-19T14:02:17.169Z,36.75
2023-01-19T14:03:52.430Z,36.48
2023-01-19T14:05:24.184Z,36.86
2023-01-19T14:06:57.023Z,36.73
2023-01-19T14:08:28.651Z,36.62
2023-01-19T14:10:04.194Z,36.45
2023-01-19T14:11:36.529Z,36.33
2023-01-19T14:13:18.660Z,36.92
2023-01-19T14:14:50.499Z,36.70
2023-01-19T14:16:24.142Z,36.72
2023-01-19T14:18:12.417Z,36.46
2023-01-19T14:19:50.455Z,36.23
2023-01-19T14:21:22.425Z,36.55
2023-01-19T14:22:54.039Z,36.75
2023-01-19T14:24:29.837Z,36.70
2023-01-19T14:26:01.584Z,36.75
2023-01-19T14:27:33.092Z,36.37
2023-01-19T14:29:14.332Z,36.59
2023-01-19T14:31:02.371Z,36.71
2023-01-19T14:32:35.432Z,36.25
2023-01-19T14:34:23.694Z,36.15
2023-01-19T14:35:55.298Z,36.73
2023-01-19T14:37:27.986Z,36.62
2023-01-19T14:38:59.668Z,36.37
2023-01-19T14:40:31.257Z,36.69
2023-01-19T14:42:04.298Z,36.51
2023-01-19T14:43:36.259Z,36.64
2023-01-19T14:45:34.149Z,36.75
2023-01-19T14:47:06.247Z,36.34
2023-01-19T14:48:38.501Z,36.51
2023-01-19T14:50:30.408Z,36.51
2023-01-19T14:52:02.950Z,36.54
2023-01-19T14:53:38.005Z,36.94
2023-01-19T14:55:17.468Z,36.62
2023-01-19T14:56:49.115Z,37.00
2023-01-19T14:58:21.234Z,37.10
2023-01-19T14:59:52.940Z,36.76
2023-01-19T15:01:24.895Z,37.14
2023-01-19T15:02:56.499Z,37.26
2023-01-19T15:04:28.149Z,37.22
2023-01-19T15:06:04.354Z,36.98
2023-01-19T15:07:36.696Z,37.25
2023-01-19T15:09:10.033Z,37.20
2023-01-19T15:10:42.116Z,37.30
2023-01-19T15:12:16.004Z,37.20
2023-01-19T15:13:48.732Z,37.59
2023-01-19T15:15:22.922Z,37.63
2023-01-19T15:16:54.535Z,37.29
2023-01-19T15:18:26.689Z,37.67
2023-01-19T15:19:58.299Z,37.35
2023-01-19T15:21:29.901Z,37.44
2023-01-19T15:23:01.479Z,37.48
2023-01-19T15:24:33.261Z,37.49
2023-01-19T15:26:04.920Z,37.96
2023-01-19T15:27:36.622Z,37.82
2023-01-19T15:29:13.155Z,38.06
2023-01-19T15:30:45.490Z,37.81
2023-01-19T15:32:17.466Z,38.13
2023-01-19T15:33:49.239Z,38.04
2023-01-19T15:35:21.657Z,37.97
2023-01-19T15:36:53.636Z,38.32
2023-01-19T15:38:26.736Z,38.43
2023-01-19T15:39:58.629Z,38.62
2023-01-19T15:41:30.267Z,38.25
2023-01-19T15:43:01.862Z,38.64
2023-01-19T15:44:33.480Z,38.66
2023-01-19T15:46:06.802Z,38.78
2023-01-19T15:47:38.420Z,38.47
2023-01-19T15:49:10.129Z,38.90
2023-01-19T15:50:44.778Z,38.75
2023-01-19T15:52:17.200Z,38.95
2023-01-19T15:53:49.082Z,39.16
2023-01-19T15:55:21.109Z,39.48
2023-01-19T15:56:53.070Z,39.52
2023-01-19T15:58:24.850Z,39.78
2023-01-19T15:59:56.500Z,39.75
2023-01-19T16:01:32.924Z,40.01
2023-01-19T16:03:04.815Z,40.17
2023-01-19T16:04:37.004Z,40.28
2023-01-19T16:06:08.720Z,40.71
2023-01-19T16:07:40.562Z,40.83
2023-01-19T16:09:16.924Z,40.86
2023-01-19T16:10:49.011Z,41.07
2023-01-19T16:12:21.330Z,40.95
2023-01-19T16:13:53.273Z,41.57
2023-01-19T16:15:25.831Z,41.61
2023-01-19T16:17:00.040Z,41.61
2023-01-19T16:18:31.687Z,41.32
2023-01-19T16:20:04.207Z,41.95
2023-01-19T16:21:35.865Z,41.97
2023-01-19T16:23:14.959Z,41.75
2023-01-19T16:24:46.885Z,42.42
2023-01-19T16:26:28.950Z,42.16
2023-01-19T16:28:00.503Z,42.59
2023-01-19T16:29:32.195Z,42.87
2023-01-19T16:31:04.068Z,42.78
2023-01-19T16:32:36.845Z,42.86
2023-01-19T16:34:08.762Z,42.93
2023-01-19T16:35:40.560Z,43.39
2023-01-19T16:37:12.282Z,43.56
2023-01-19T16:38:44.436Z,43.17
2023-01-19T16:40:16.119Z,43.50
2023-01-19T16:41:47.719Z,43.66
2023-01-19T16:43:19.304Z,44.08
2023-01-19T16:44:50.902Z,44.10
2023-01-19T16:46:25.577Z,44.15
2023-01-19T16:47:57.811Z,44.71
2023-01-19T16:49:30.562Z,44.50
2023-01-19T16:51:02.974Z,44.97
2023-01-19T16:52:34.703Z,44.95
2023-01-19T16:54:06.383Z,45.02
2023-01-19T16:55:40.876Z,45.39
2023-01-19T16:57:13.321Z,45.54
2023-01-19T16:58:45.295Z,45.20
2023-01-19T17:00:17.348Z,45.82
2023-01-19T17:01:51.003Z,45.58
2023-01-19T17:03:23.242Z,45.38
2023-01-19T17:04:54.875Z,46.58
2023-01-19T17:06:27.037Z,45.99
2023-01-19T17:07:58.605Z,46.05
2023-01-19T17:09:30.344Z,46.07
2023-01-19T17:11:05.197Z,46.16
2023-01-19T17:12:37.029Z,46.57
2023-01-19T17:14:10.443Z,46.36
2023-01-19T17:15:42.175Z,46.83
2023-01-19T17:17:14.187Z,47.04
2023-01-19T17:18:45.695Z,46.87
2023-01-19T17:20:17.180Z,46.97
2023-01-19T17:21:49.102Z,47.09
2023-01-19T17:23:20.624Z,46.72
2023-01-19T17:24:52.450Z,47.07
2023-01-19T17:26:28.771Z,46.85
2023-01-19T17:28:03.220Z,47.16
2023-01-19T17:29:35.009Z,47.31
2023-01-19T17:31:07.357Z,47.26
2023-01-19T17:32:39.123Z,47.41
2023-01-19T17:34:11.174Z,47.48
2023-01-19T17:35:43.249Z,47.58
2023-01-19T17:37:15.355Z,47.62
2023-01-19T17:38:48.107Z,47.86
2023-01-19T17:40:20.309Z,48.47
2023-01-19T17:41:52.017Z,48.87
2023-01-19T17:43:24.184Z,48.23
2023-01-19T17:44:55.751Z,49.09
2023-01-19T17:46:27.938Z,49.28
2023-01-19T17:48:00.774Z,49.55
2023-01-19T17:49:33.265Z,49.47
2023-01-19T17:51:08.453Z,49.12
2023-01-19T17:52:40.557Z,49.51
2023-01-19T17:54:12.710Z,49.32
2023-01-19T17:55:44.377Z,49.47
2023-01-19T17:57:16.247Z,49.59
2023-01-19T17:58:47.968Z,49.00
2023-01-19T18:00:20.438Z,49.22
2023-01-19T18:01:52.063Z,49.29
2023-01-19T18:03:24.220Z,49.07
2023-01-19T18:04:57.717Z,48.89
2023-01-19T18:06:30.453Z,49.12
2023-01-19T18:08:03.595Z,49.38
2023-01-19T18:09:35.664Z,49.30
2023-01-19T18:11:08.954Z,49.18
2023-01-19T18:12:41.260Z,49.56
2023-01-19T18:14:13.413Z,49.37
2023-01-19T18:15:46.712Z,49.29
2023-01-19T18:17:20.155Z,49.60
2023-01-19T18:18:54.022Z,48.94
2023-01-19T18:20:27.513Z,49.64
2023-01-19T18:21:59.870Z,49.44
2023-01-19T18:23:32.329Z,49.36
2023-01-19T18:25:05.321Z,49.84
2023-01-19T18:26:38.459Z,49.45
2023-01-19T18:28:10.947Z,50.37
2023-01-19T18:29:47.402Z,49.78
2023-01-19T18:31:20.871Z,49.65
2023-01-19T18:32:53.122Z,50.35
2023-01-19T18:34:25.895Z,50.11
2023-01-19T18:35:58.072Z,50.73
2023-01-19T18:37:30.020Z,50.33
2023-01-19T18:39:02.374Z,50.70
2023-01-19T18:40:37.070Z,51.05
2023-01-19T18:42:13.475Z,51.59
2023-01-19T18:43:45.487Z,51.17
2023-01-19T18:45:17.483Z,51.31
2023-01-19T18:46:50.634Z,51.73
2023-01-19T18:48:23.249Z,51.49
2023-01-19T18:49:56.634Z,51.08
2023-01-19T18:51:30.329Z,51.64
2023-01-19T18:53:03.662Z,50.88
2023-01-19T18:54:37.487Z,51.86
2023-01-19T18:56:12.123Z,51.49
2023-01-19T18:57:44.694Z,51.67
2023-01-19T18:59:17.834Z,51.83
2023-01-19T19:00:51.571Z,51.26
2023-01-19T19:02:25.399Z,51.32
2023-01-19T19:04:00.858Z,51.52
2023-01-19T19:05:33.865Z,51.52
2023-01-19T19:07:09.015Z,51.96
2023-01-19T19:08:42.188Z,51.56
2023-01-19T19:10:14.859Z,52.01
2023-01-19T19:11:50.100Z,51.90
2023-01-19T19:13:22.718Z,51.82
2023-01-19T19:14:54.883Z,51.77
2023-01-19T19:16:27.618Z,52.05
2023-01-19T19:18:00.393Z,52.41
2023-01-19T19:19:33.026Z,52.48
2023-01-19T19:21:09.936Z,53.40
2023-01-19T19:22:42.465Z,52.50
2023-01-19T19:24:14.420Z,52.53
2023-01-19T19:25:45.915Z,52.80
2023-01-19T19:27:18.001Z,52.96
2023-01-19T19:28:49.544Z,52.61
2023-01-19T19:30:21.487Z,52.69
2023-01-19T19:31:56.213Z,53.01
2023-01-19T19:33:27.969Z,53.24
2023-01-19T19:34:59.647Z,53.20
2023-01-19T19:36:31.913Z,53.21
2023-01-19T19:38:04.177Z,53.13
2023-01-19T19:39:38.599Z,53.70
2023-01-19T19:41:13.735Z,53.31
2023-01-19T19:42:46.055Z,53.77
2023-01-19T19:44:17.629Z,53.35
2023-01-19T19:46:02.959Z,53.76
2023-01-19T19:47:35.420Z,53.56
2023-01-19T19:49:07.061Z,53.78
2023-01-19T19:50:40.438Z,54.08
2023-01-19T19:52:14.700Z,54.43
2023-01-19T19:53:47.890Z,54.06
2023-01-19T19:55:23.146Z,53.69
2023-01-19T19:56:55.646Z,54.08
2023-01-19T19:58:28.000Z,53.55
2023-01-19T19:59:59.861Z,53.88
2023-01-19T20:01:34.555Z,53.75
2023-01-19T20:03:13.537Z,54.19
2023-01-19T20:04:53.282Z,54.00
2023-01-19T20:06:28.450Z,54.15
2023-01-19T20:08:01.529Z,54.19
2023-01-19T20:09:35.648Z,53.84